Time;durP1;ratioP1;P1;durP2;ratioP2;P2;SDS_P1;SDS_P2;PMS_P1;PMS_P2;Temp;Humidity;BMP_temperature;BMP_pressure;BME280_temperature;BME280_humidity;BME280_pressure;Samples;Min_cycle;Max_cycle;Signal;HPM_P1;HPM_P2
2021/03/13 00:01:12;;;;;;;1.30;1.20;;;5.70;99.90;;;;;;5093048;28;20223;-47
2021/03/13 00:03:38;;;;;;;3.77;1.67;;;5.70;99.90;;;;;;5073946;28;20566;-46
2021/03/13 00:06:04;;;;;;;4.50;1.50;;;5.70;99.90;;;;;;5073785;28;20230;-46
2021/03/13 00:08:30;;;;;;;3.83;1.57;;;5.70;99.90;;;;;;5093524;28;20174;-48
2021/03/13 00:10:56;;;;;;;2.20;1.40;;;5.80;99.90;;;;;;5093561;28;20220;-46
2021/03/13 00:13:21;;;;;;;4.97;1.70;;;5.80;99.90;;;;;;5076070;28;20217;-47
2021/03/13 00:15:47;;;;;;;3.53;1.70;;;5.90;99.90;;;;;;5073875;28;20208;-57
2021/03/13 00:18:14;;;;;;;3.60;1.93;;;5.90;99.90;;;;;;5074082;28;20174;-52
2021/03/13 00:20:41;;;;;;;4.97;1.57;;;5.90;99.90;;;;;;5074473;28;20178;-46
2021/03/13 00:23:08;;;;;;;2.83;1.40;;;6.00;99.90;;;;;;5093894;28;20215;-51
2021/03/13 00:25:35;;;;;;;3.27;1.50;;;6.00;99.90;;;;;;5094281;28;20518;-49
2021/03/13 00:28:01;;;;;;;4.63;1.23;;;6.10;99.90;;;;;;5093506;28;20181;-46
2021/03/13 00:30:32;;;;;;;1.60;1.30;;;6.10;99.90;;;;;;5080998;28;20178;-47
2021/03/13 00:33:10;;;;;;;3.43;1.50;;;6.20;99.90;;;;;;5073975;28;20166;-47
2021/03/13 00:35:36;;;;;;;2.50;1.30;;;6.30;99.90;;;;;;5088092;28;20201;-51
2021/03/13 00:38:03;;;;;;;1.10;1.00;;;6.30;99.90;;;;;;5094631;28;20172;-56
2021/03/13 00:40:31;;;;;;;3.87;1.20;;;6.30;99.90;;;;;;5081545;28;20259;-49
2021/03/13 00:42:58;;;;;;;3.17;1.43;;;6.40;99.60;;;;;;5073776;28;20178;-55
2021/03/13 00:45:25;;;;;;;2.07;0.97;;;6.40;99.50;;;;;;5084748;28;20207;-45
2021/03/13 00:47:51;;;;;;;1.83;1.23;;;6.50;99.50;;;;;;5093897;28;20537;-47
2021/03/13 00:50:21;;;;;;;2.77;1.37;;;6.40;99.60;;;;;;5083444;28;20589;-50
2021/03/13 00:52:47;;;;;;;2.63;1.30;;;6.50;99.30;;;;;;5074306;28;20615;-51
2021/03/13 00:55:13;;;;;;;6.07;1.10;;;6.60;99.10;;;;;;5085622;28;20227;-49
2021/03/13 00:57:39;;;;;;;2.87;1.47;;;6.50;99.30;;;;;;5093708;28;20223;-54
2021/03/13 01:00:07;;;;;;;2.23;1.20;;;6.50;99.60;;;;;;5082644;28;20171;-49
2021/03/13 01:02:33;;;;;;;3.30;1.30;;;6.50;99.00;;;;;;5073240;28;20572;-46
2021/03/13 01:04:58;;;;;;;2.40;1.30;;;6.50;98.90;;;;;;5083157;28;20192;-52
2021/03/13 01:07:24;;;;;;;1.67;0.90;;;6.60;98.90;;;;;;5093930;28;20170;-46
2021/03/13 01:09:50;;;;;;;3.27;1.50;;;6.60;98.40;;;;;;5085451;28;20269;-46
2021/03/13 01:12:16;;;;;;;2.37;1.00;;;6.60;98.50;;;;;;5073347;28;20178;-47
2021/03/13 01:14:42;;;;;;;2.27;1.20;;;6.70;98.00;;;;;;5080357;28;20533;-48
2021/03/13 01:17:07;;;;;;;3.43;1.17;;;6.70;98.20;;;;;;5094007;28;20514;-48
2021/03/13 01:19:33;;;;;;;2.43;0.97;;;6.70;98.30;;;;;;5088168;28;20177;-52
2021/03/13 01:21:58;;;;;;;2.37;1.17;;;6.70;98.50;;;;;;5073490;28;20243;-50
2021/03/13 01:24:24;;;;;;;2.07;1.07;;;6.70;98.10;;;;;;5083176;28;20179;-46
2021/03/13 01:26:50;;;;;;;3.00;1.37;;;6.70;98.10;;;;;;5096586;28;20197;-46
2021/03/13 01:29:15;;;;;;;2.13;1.07;;;6.80;98.20;;;;;;5090911;28;20262;-56
2021/03/13 01:31:41;;;;;;;2.83;1.10;;;6.80;98.40;;;;;;5082721;28;20519;-49
2021/03/13 01:34:06;;;;;;;1.97;1.13;;;6.80;97.70;;;;;;5077084;28;20188;-54
2021/03/13 01:36:32;;;;;;;2.03;1.20;;;6.80;97.90;;;;;;5076215;28;20222;-50
2021/03/13 01:38:58;;;;;;;2.40;0.93;;;6.80;98.00;;;;;;5076343;28;20257;-52
2021/03/13 01:41:23;;;;;;;1.57;1.00;;;6.80;98.00;;;;;;5076826;28;20182;-50
2021/03/13 01:43:49;;;;;;;1.70;0.80;;;6.90;97.60;;;;;;5076568;28;20499;-48
2021/03/13 01:46:14;;;;;;;2.10;1.17;;;6.90;97.80;;;;;;5084397;28;20198;-49
2021/03/13 01:48:51;;;;;;;1.67;1.10;;;6.90;97.50;;;;;;5097055;28;20469;-55
2021/03/13 01:51:17;;;;;;;3.80;1.20;;;6.90;98.00;;;;;;5096633;28;20637;-53
2021/03/13 01:53:47;;;;;;;1.57;1.13;;;6.90;97.50;;;;;;5096981;28;20695;-51
2021/03/13 01:56:14;;;;;;;1.83;1.10;;;6.90;97.60;;;;;;5096919;28;20212;-51
2021/03/13 01:58:40;;;;;;;2.90;1.20;;;7.00;97.40;;;;;;5096923;28;20173;-46
2021/03/13 02:01:08;;;;;;;2.37;1.17;;;7.00;97.80;;;;;;5096954;28;20166;-51
2021/03/13 02:03:40;;;;;;;2.50;1.30;;;7.00;97.30;;;;;;5096551;28;20648;-51
2021/03/13 02:06:06;;;;;;;1.50;0.97;;;7.10;97.30;;;;;;5096457;28;20722;-58
2021/03/13 02:08:40;;;;;;;2.00;0.90;;;7.20;97.20;;;;;;5096370;28;20193;-57
2021/03/13 02:11:36;;;;;;;2.60;1.10;;;7.20;96.50;;;;;;5096199;28;20272;-47
2021/03/13 02:14:33;;;;;;;2.27;0.97;;;7.40;96.40;;;;;;5096281;28;20177;-46
2021/03/13 02:17:17;;;;;;;1.53;1.00;;;7.40;96.40;;;;;;5096381;28;20186;-51
2021/03/13 02:19:53;;;;;;;2.23;1.10;;;7.40;96.30;;;;;;5096277;28;20248;-55
2021/03/13 02:22:20;;;;;;;2.77;1.13;;;7.40;96.00;;;;;;5083855;28;20228;-51
2021/03/13 02:25:04;;;;;;;3.57;1.53;;;7.40;96.10;;;;;;5076635;28;20202;-56
2021/03/13 02:27:40;;;;;;;3.13;1.57;;;7.40;96.00;;;;;;5075816;28;20179;-54
2021/03/13 02:30:16;;;;;;;2.37;1.20;;;7.40;96.00;;;;;;5076068;28;20257;-52
2021/03/13 02:32:54;;;;;;;2.50;1.40;;;7.30;96.00;;;;;;5075635;28;20189;-50
2021/03/13 02:35:25;;;;;;;3.30;1.33;;;7.30;96.00;;;;;;5074937;28;20202;-47
2021/03/13 02:37:59;;;;;;;1.90;1.40;;;7.30;96.10;;;;;;5075545;28;20186;-48
2021/03/13 02:40:28;;;;;;;2.47;1.47;;;7.20;95.90;;;;;;5075947;28;20678;-56
2021/03/13 02:43:00;;;;;;;2.87;1.53;;;7.20;96.10;;;;;;5075914;28;20223;-46
2021/03/13 02:45:28;;;;;;;2.97;1.13;;;7.10;95.90;;;;;;5075215;28;20179;-47
2021/03/13 02:47:55;;;;;;;2.07;1.10;;;7.10;95.90;;;;;;5075634;28;20261;-53
2021/03/13 02:50:21;;;;;;;3.23;1.50;;;7.10;95.90;;;;;;5075196;28;20181;-51
2021/03/13 02:52:48;;;;;;;4.07;1.50;;;7.10;96.50;;;;;;5074954;28;20274;-49
2021/03/13 02:55:15;;;;;;;2.00;1.23;;;7.10;96.50;;;;;;5074669;28;20206;-47
2021/03/13 02:57:45;;;;;;;1.93;1.50;;;7.00;96.40;;;;;;5075621;28;20170;-48
2021/03/13 03:00:16;;;;;;;2.90;1.30;;;7.00;96.40;;;;;;5074672;28;20181;-51
2021/03/13 03:02:47;;;;;;;1.63;1.10;;;7.00;96.60;;;;;;5075013;28;20205;-51
2021/03/13 03:05:16;;;;;;;3.73;1.30;;;6.90;96.90;;;;;;5075072;28;20194;-46
2021/03/13 03:07:42;;;;;;;2.53;1.17;;;6.80;96.70;;;;;;5075375;28;20522;-50
2021/03/13 03:10:09;;;;;;;2.77;1.30;;;6.80;97.10;;;;;;5074760;28;20620;-52
2021/03/13 03:12:35;;;;;;;2.07;1.40;;;6.70;97.00;;;;;;5073645;28;20213;-57
2021/03/13 03:15:03;;;;;;;3.03;1.60;;;6.70;97.30;;;;;;5074571;28;20225;-50
2021/03/13 03:17:29;;;;;;;2.83;1.70;;;6.60;97.40;;;;;;5074930;28;20315;-46
2021/03/13 03:19:56;;;;;;;4.03;1.63;;;6.60;97.80;;;;;;5074695;28;20569;-57
2021/03/13 03:22:22;;;;;;;2.73;1.60;;;6.50;98.00;;;;;;5075135;28;20206;-57
2021/03/13 03:24:48;;;;;;;2.03;1.43;;;6.60;98.00;;;;;;5074461;28;20207;-46
2021/03/13 03:27:14;;;;;;;2.70;1.37;;;6.60;98.30;;;;;;5074506;28;20178;-51
2021/03/13 03:29:40;;;;;;;2.93;1.57;;;6.60;98.00;;;;;;5074641;28;20236;-57
2021/03/13 03:32:05;;;;;;;1.93;1.47;;;6.60;98.00;;;;;;5074329;28;20179;-48
2021/03/13 03:34:31;;;;;;;2.77;1.60;;;6.60;98.30;;;;;;5074272;28;20179;-47
2021/03/13 03:36:57;;;;;;;2.80;1.37;;;6.60;98.00;;;;;;5074390;28;20206;-52
2021/03/13 03:39:23;;;;;;;2.40;1.50;;;6.70;98.10;;;;;;5074696;28;20306;-51
2021/03/13 03:41:53;;;;;;;2.80;1.30;;;6.80;98.20;;;;;;5074092;28;20182;-52
2021/03/13 03:44:24;;;;;;;2.37;1.40;;;6.90;97.60;;;;;;5074612;28;20178;-58
2021/03/13 03:46:51;;;;;;;2.80;1.33;;;6.90;97.20;;;;;;5074082;28;20504;-48
2021/03/13 03:49:20;;;;;;;2.43;1.60;;;6.80;97.40;;;;;;5074384;28;20264;-57
2021/03/13 03:51:46;;;;;;;1.77;1.30;;;6.70;97.50;;;;;;5074008;28;20190;-53
2021/03/13 03:54:13;;;;;;;2.13;1.53;;;6.60;97.40;;;;;;5074788;28;20197;-54
2021/03/13 03:56:40;;;;;;;1.83;1.47;;;6.60;97.50;;;;;;5073954;28;20202;-55
2021/03/13 03:59:13;;;;;;;2.53;1.67;;;6.60;97.70;;;;;;5074340;28;20488;-54
2021/03/13 04:01:48;;;;;;;2.20;1.40;;;6.70;97.70;;;;;;5074071;28;20186;-52
2021/03/13 04:04:18;;;;;;;2.87;1.30;;;6.70;97.70;;;;;;5074318;28;20173;-46
2021/03/13 04:06:43;;;;;;;1.90;1.47;;;6.70;97.80;;;;;;5074553;28;20195;-58
2021/03/13 04:09:10;;;;;;;3.30;1.10;;;6.70;98.00;;;;;;5074361;28;20189;-46
2021/03/13 04:11:37;;;;;;;2.87;1.70;;;6.60;98.10;;;;;;5073695;28;20633;-49
2021/03/13 04:14:03;;;;;;;3.43;1.60;;;6.50;98.10;;;;;;5073791;28;20622;-46
2021/03/13 04:16:30;;;;;;;1.97;1.10;;;6.50;98.50;;;;;;5073821;28;20212;-47
2021/03/13 04:18:58;;;;;;;2.20;1.30;;;6.50;98.20;;;;;;5074207;28;20225;-48
2021/03/13 04:21:23;;;;;;;3.97;1.70;;;6.60;98.00;;;;;;5074255;28;20174;-47
2021/03/13 04:23:49;;;;;;;2.20;1.50;;;6.70;97.90;;;;;;5073806;28;20175;-51
2021/03/13 04:26:21;;;;;;;4.50;1.53;;;6.70;97.80;;;;;;5073969;28;20226;-47
2021/03/13 04:28:47;;;;;;;3.27;1.80;;;6.80;97.40;;;;;;5074086;28;20622;-57
2021/03/13 04:31:14;;;;;;;1.90;1.20;;;6.80;97.30;;;;;;5073545;28;20238;-51
2021/03/13 04:33:41;;;;;;;2.10;1.40;;;6.90;97.30;;;;;;5074026;28;20183;-46
2021/03/13 04:36:08;;;;;;;1.50;1.20;;;6.90;97.10;;;;;;5073506;28;20296;-55
2021/03/13 04:38:34;;;;;;;1.53;1.27;;;6.80;97.20;;;;;;5073796;28;20185;-55
2021/03/13 04:41:00;;;;;;;1.90;1.17;;;6.70;97.20;;;;;;5072846;28;20175;-58
2021/03/13 04:43:27;;;;;;;2.47;1.20;;;6.70;97.60;;;;;;5073712;28;20231;-48
2021/03/13 04:45:57;;;;;;;1.30;1.20;;;6.70;97.40;;;;;;5073700;28;20546;-57
2021/03/13 04:48:25;;;;;;;2.20;1.30;;;6.60;97.70;;;;;;5073308;28;20170;-46
2021/03/13 04:50:50;;;;;;;1.40;1.20;;;6.60;97.80;;;;;;5073690;28;20194;-46
2021/03/13 04:53:16;;;;;;;1.77;1.30;;;6.60;98.00;;;;;;5073623;28;20591;-52
2021/03/13 04:55:42;;;;;;;1.80;1.50;;;6.50;97.90;;;;;;5073350;28;20255;-46
2021/03/13 04:58:08;;;;;;;1.07;0.97;;;6.50;97.90;;;;;;5075901;28;20171;-56
2021/03/13 05:00:34;;;;;;;2.50;1.10;;;6.50;97.80;;;;;;5077413;28;20525;-57
2021/03/13 05:02:59;;;;;;;1.70;1.10;;;6.50;97.50;;;;;;5077183;28;20778;-50
2021/03/13 05:05:25;;;;;;;2.37;1.30;;;6.60;97.40;;;;;;5077153;28;20593;-47
2021/03/13 05:07:51;;;;;;;1.63;1.20;;;6.60;97.60;;;;;;5077777;28;20201;-51
2021/03/13 05:10:17;;;;;;;3.83;1.30;;;6.60;97.60;;;;;;5077262;28;20276;-47
2021/03/13 05:12:43;;;;;;;2.33;1.20;;;6.70;97.20;;;;;;5077112;28;20261;-54
2021/03/13 05:15:11;;;;;;;2.83;1.17;;;6.60;96.70;;;;;;5077071;28;20294;-46
2021/03/13 05:17:37;;;;;;;1.73;1.30;;;6.60;96.80;;;;;;5076978;28;20181;-46
2021/03/13 05:20:04;;;;;;;1.43;1.10;;;6.50;96.50;;;;;;5076923;28;20304;-51
2021/03/13 05:22:30;;;;;;;2.40;1.30;;;6.40;96.50;;;;;;5077158;28;20323;-46
2021/03/13 05:24:55;;;;;;;3.23;1.20;;;6.40;96.80;;;;;;5077003;28;20273;-49
2021/03/13 05:27:21;;;;;;;2.70;1.10;;;6.30;96.90;;;;;;5077455;28;20530;-50
2021/03/13 05:29:46;;;;;;;0.80;0.80;;;6.20;96.90;;;;;;5077433;28;20167;-47
2021/03/13 05:32:12;;;;;;;1.63;1.17;;;6.20;96.90;;;;;;5076654;28;20202;-52
2021/03/13 05:34:38;;;;;;;1.20;1.07;;;6.20;96.90;;;;;;5076648;28;20178;-51
2021/03/13 05:37:03;;;;;;;1.40;1.07;;;6.20;97.00;;;;;;5077011;28;20670;-46
2021/03/13 05:39:29;;;;;;;2.23;1.20;;;6.10;96.90;;;;;;5076696;28;20193;-51
2021/03/13 05:41:55;;;;;;;2.33;1.33;;;6.20;97.00;;;;;;5076604;28;20174;-47
2021/03/13 05:44:20;;;;;;;1.53;0.90;;;6.20;96.80;;;;;;5076601;28;20174;-56
2021/03/13 05:46:46;;;;;;;1.20;1.07;;;6.30;96.80;;;;;;5085740;28;20216;-47
2021/03/13 05:49:12;;;;;;;1.60;1.30;;;6.30;97.10;;;;;;5091521;28;20192;-50
2021/03/13 05:51:42;;;;;;;1.67;1.40;;;6.40;96.80;;;;;;5111269;28;20564;-56
2021/03/13 05:54:12;;;;;;;1.93;1.30;;;6.50;96.70;;;;;;5091294;28;20683;-47
2021/03/13 05:56:39;;;;;;;3.07;1.23;;;6.50;96.60;;;;;;5088211;28;20241;-46
2021/03/13 05:59:05;;;;;;;2.30;0.87;;;6.50;96.60;;;;;;5090476;28;20212;-47
2021/03/13 06:01:32;;;;;;;3.07;1.50;;;6.50;96.70;;;;;;5088154;28;20620;-49
2021/03/13 06:03:58;;;;;;;3.03;1.20;;;6.50;96.70;;;;;;5094985;28;20200;-57
2021/03/13 06:06:25;;;;;;;1.93;1.30;;;6.50;96.80;;;;;;5109444;27;20197;-47
2021/03/13 06:08:52;;;;;;;2.03;1.07;;;6.50;96.90;;;;;;5104762;28;20287;-47
2021/03/13 06:11:19;;;;;;;2.33;1.10;;;6.50;97.00;;;;;;5108593;28;20204;-54
2021/03/13 06:13:45;;;;;;;1.30;1.00;;;6.60;97.20;;;;;;5101815;28;20545;-52
2021/03/13 06:16:11;;;;;;;1.60;1.20;;;6.70;97.20;;;;;;5113057;28;20201;-47
2021/03/13 06:18:52;;;;;;;1.13;1.03;;;6.80;97.30;;;;;;5082591;28;20638;-54
2021/03/13 06:21:23;;;;;;;1.57;1.10;;;6.80;97.00;;;;;;5080057;28;20194;-51
2021/03/13 06:23:55;;;;;;;2.23;1.30;;;6.90;97.20;;;;;;5084965;28;20209;-46
2021/03/13 06:26:21;;;;;;;2.10;1.10;;;6.90;97.10;;;;;;5083650;28;20599;-52
2021/03/13 06:28:46;;;;;;;1.63;1.00;;;7.00;97.10;;;;;;5094809;28;20205;-46
2021/03/13 06:31:13;;;;;;;2.90;1.53;;;7.00;97.80;;;;;;5094655;28;20181;-55
2021/03/13 06:33:39;;;;;;;2.07;1.17;;;7.00;97.50;;;;;;5086927;28;20185;-47
2021/03/13 06:36:07;;;;;;;1.85;1.05;;;6.90;97.70;;;;;;5085964;28;20429;-44
2021/03/13 06:38:36;;;;;;;1.30;1.13;;;7.00;98.00;;;;;;5082498;28;20183;-56
2021/03/13 06:41:22;;;;;;;1.43;0.97;;;7.10;97.80;;;;;;5082556;28;20177;-51
2021/03/13 06:43:51;;;;;;;1.37;1.10;;;7.00;97.80;;;;;;5082988;28;20713;-48
2021/03/13 06:46:21;;;;;;;1.73;0.90;;;7.10;97.90;;;;;;5081977;28;20209;-56
2021/03/13 06:48:54;;;;;;;1.90;0.97;;;7.20;98.60;;;;;;5081290;28;20183;-54
2021/03/13 06:51:24;;;;;;;2.10;0.93;;;7.30;98.30;;;;;;5082578;28;20257;-49
2021/03/13 06:54:12;;;;;;;1.47;1.20;;;7.40;98.00;;;;;;5085397;28;20174;-57
2021/03/13 06:56:41;;;;;;;1.93;1.20;;;7.50;97.90;;;;;;5082239;28;20202;-51
2021/03/13 06:59:30;;;;;;;3.20;1.10;;;7.50;97.90;;;;;;5086300;28;20184;-46
2021/03/13 07:02:03;;;;;;;1.03;0.77;;;7.50;98.20;;;;;;5093450;28;20631;-55
2021/03/13 07:04:34;;;;;;;1.63;1.00;;;7.60;98.30;;;;;;5107875;28;20210;-48
2021/03/13 07:06:59;;;;;;;26.70;23.90;;;7.60;98.10;;;;;;5106969;28;20221;-51
2021/03/13 07:09:44;;;;;;;1.57;1.20;;;7.60;98.10;;;;;;5100400;28;20185;-53
2021/03/13 07:12:26;;;;;;;3.43;1.23;;;7.60;98.10;;;;;;5084225;28;20173;-56
2021/03/13 07:14:53;;;;;;;2.40;1.70;;;7.60;98.10;;;;;;5104461;28;20219;-54
2021/03/13 07:17:20;;;;;;;1.60;1.30;;;7.70;98.00;;;;;;5098165;28;20194;-58
2021/03/13 07:19:46;;;;;;;2.20;1.30;;;7.70;97.80;;;;;;5112964;28;20206;-57
2021/03/13 07:22:13;;;;;;;1.37;0.93;;;7.80;97.90;;;;;;5109899;28;20201;-54
2021/03/13 07:24:41;;;;;;;1.97;1.20;;;7.80;97.90;;;;;;5103405;28;20169;-54
2021/03/13 07:27:10;;;;;;;1.37;0.90;;;7.80;98.10;;;;;;5102440;28;20177;-56
2021/03/13 07:29:38;;;;;;;4.30;1.03;;;7.90;98.00;;;;;;5108989;28;20667;-52
2021/03/13 07:32:05;;;;;;;5.60;4.03;;;8.00;98.00;;;;;;5110249;27;20251;-58
2021/03/13 07:34:36;;;;;;;2.20;1.10;;;8.00;97.50;;;;;;5102263;28;20169;-54
2021/03/13 07:37:02;;;;;;;3.47;1.30;;;8.00;97.40;;;;;;5101683;28;20631;-53
2021/03/13 07:39:33;;;;;;;2.77;1.07;;;8.10;97.60;;;;;;5094382;28;20656;-53
2021/03/13 07:42:16;;;;;;;1.13;1.03;;;8.20;97.40;;;;;;5110902;28;20170;-58
2021/03/13 07:44:43;;;;;;;3.77;1.07;;;8.30;98.30;;;;;;5103846;28;20189;-52
2021/03/13 07:47:13;;;;;;;1.13;0.87;;;8.40;97.80;;;;;;5101513;28;20576;-50
2021/03/13 07:49:40;;;;;;;2.37;1.13;;;8.40;97.80;;;;;;5102441;28;20235;-55
2021/03/13 07:52:08;;;;;;;1.47;1.13;;;8.40;97.90;;;;;;5110328;28;20215;-56
2021/03/13 07:54:38;;;;;;;1.93;1.20;;;8.50;98.30;;;;;;5090128;28;20203;-52
2021/03/13 07:57:06;;;;;;;1.60;1.20;;;8.50;98.30;;;;;;5106806;28;20280;-56
2021/03/13 07:59:52;;;;;;;0.90;0.77;;;8.60;97.90;;;;;;5098122;28;20178;-57
2021/03/13 08:02:29;;;;;;;1.20;1.00;;;8.60;98.80;;;;;;5085387;28;20165;-57
2021/03/13 08:04:58;;;;;;;2.00;0.90;;;8.60;98.30;;;;;;5102864;28;20264;-52
2021/03/13 08:07:25;;;;;;;2.13;1.00;;;8.60;99.10;;;;;;5095783;28;20223;-56
2021/03/13 08:09:51;;;;;;;1.13;0.93;;;8.70;98.70;;;;;;5110594;28;20238;-56
2021/03/13 08:12:39;;;;;;;1.53;0.70;;;8.70;98.40;;;;;;5093874;28;20178;-51
2021/03/13 08:15:12;;;;;;;0.77;0.60;;;8.80;98.60;;;;;;5106868;28;20224;-57
2021/03/13 08:17:40;;;;;;;1.83;0.80;;;8.80;98.50;;;;;;5097413;28;20706;-54
2021/03/13 08:20:10;;;;;;;1.30;0.70;;;8.90;98.50;;;;;;5110707;28;20178;-53
2021/03/13 08:22:36;;;;;;;0.93;0.77;;;8.90;97.70;;;;;;5094068;28;20252;-57
2021/03/13 08:25:22;;;;;;;1.07;0.70;;;8.90;98.20;;;;;;5105750;28;20254;-58
2021/03/13 08:27:48;;;;;;;1.67;1.00;;;9.00;98.30;;;;;;5097090;28;20510;-54
2021/03/13 08:30:22;;;;;;;1.27;0.60;;;9.10;98.10;;;;;;5111828;28;20671;-57
2021/03/13 08:32:58;;;;;;;1.87;1.13;;;9.10;97.50;;;;;;5107919;28;20176;-55
2021/03/13 08:35:31;;;;;;;1.50;0.70;;;9.20;97.30;;;;;;5115481;28;20222;-60
2021/03/13 08:37:57;;;;;;;4.07;0.87;;;9.30;97.80;;;;;;5101129;27;20181;-59
2021/03/13 08:40:24;;;;;;;1.60;0.77;;;9.40;97.00;;;;;;5096065;28;20177;-53
2021/03/13 08:42:50;;;;;;;2.43;0.80;;;9.40;96.90;;;;;;5108119;27;20181;-55
2021/03/13 08:45:18;;;;;;;1.63;1.03;;;9.50;96.90;;;;;;5086662;28;20331;-56
2021/03/13 08:47:51;;;;;;;1.57;0.70;;;9.50;96.30;;;;;;5093775;28;20545;-59
2021/03/13 08:50:45;;;;;;;2.33;0.90;;;9.80;97.30;;;;;;5100610;28;20150;-56
2021/03/13 08:53:29;;;;;;;1.50;0.90;;;9.50;96.80;;;;;;5098473;28;20199;-53
2021/03/13 08:55:54;;;;;;;1.23;0.73;;;9.60;97.40;;;;;;5080828;28;20229;-52
2021/03/13 08:58:40;;;;;;;1.57;0.70;;;9.60;97.20;;;;;;5079973;28;20206;-54
2021/03/13 09:01:22;;;;;;;0.60;0.60;;;9.70;96.50;;;;;;5079842;28;20180;-52
2021/03/13 09:03:50;;;;;;;1.77;0.60;;;9.70;96.70;;;;;;5090364;28;20201;-58
2021/03/13 09:06:17;;;;;;;1.90;0.70;;;9.60;96.90;;;;;;5099679;28;20205;-56
2021/03/13 09:08:43;;;;;;;1.40;0.67;;;9.80;96.70;;;;;;5100366;28;20178;-54
2021/03/13 09:11:08;;;;;;;1.30;0.70;;;9.90;96.60;;;;;;5099692;28;20208;-56
2021/03/13 09:13:34;;;;;;;1.00;0.80;;;10.00;96.10;;;;;;5100324;28;20185;-51
2021/03/13 09:16:15;;;;;;;1.23;0.80;;;10.10;95.90;;;;;;5100373;28;20205;-56
2021/03/13 09:18:55;;;;;;;1.60;1.13;;;10.20;95.60;;;;;;5100497;28;20657;-56
2021/03/13 09:21:51;;;;;;;8.13;1.50;;;10.40;95.90;;;;;;5099827;28;20284;-55
2021/03/13 09:24:26;;;;;;;2.30;1.00;;;10.50;95.60;;;;;;5100441;28;20257;-58
2021/03/13 09:26:54;;;;;;;1.00;0.90;;;10.50;95.30;;;;;;5100442;28;20683;-56
2021/03/13 09:29:28;;;;;;;1.27;1.17;;;10.50;95.10;;;;;;5100110;28;20191;-55
2021/03/13 09:31:59;;;;;;;23.20;13.43;;;10.50;94.80;;;;;;5100425;28;20551;-54
2021/03/13 09:34:25;;;;;;;3.60;2.63;;;10.60;95.20;;;;;;5100300;28;20231;-56
2021/03/13 09:36:51;;;;;;;1.67;1.23;;;10.70;94.70;;;;;;5100055;28;20715;-55
2021/03/13 09:39:22;;;;;;;1.10;1.00;;;10.70;94.80;;;;;;5100197;28;20212;-56
2021/03/13 09:42:15;;;;;;;1.43;1.10;;;10.80;94.30;;;;;;5100156;28;20614;-56
2021/03/13 09:44:49;;;;;;;1.00;0.83;;;10.70;93.90;;;;;;5096942;28;20166;-58
2021/03/13 09:47:25;;;;;;;1.93;1.13;;;10.60;94.50;;;;;;5096774;28;20526;-52
2021/03/13 09:49:53;;;;;;;1.50;0.87;;;10.60;94.40;;;;;;5097469;28;20170;-53
2021/03/13 09:52:29;;;;;;;1.37;0.97;;;10.60;94.20;;;;;;5095725;28;20677;-58
2021/03/13 09:55:16;;;;;;;1.60;1.00;;;10.50;94.10;;;;;;5100518;28;20201;-56
2021/03/13 09:57:47;;;;;;;1.37;1.03;;;10.50;94.20;;;;;;5083737;28;20186;-55
2021/03/13 10:00:21;;;;;;;1.60;0.80;;;10.50;93.80;;;;;;5079684;28;20171;-59
2021/03/13 10:02:47;;;;;;;2.93;1.00;;;10.60;94.30;;;;;;5075862;28;20281;-51
2021/03/13 10:05:14;;;;;;;0.70;0.67;;;10.60;94.80;;;;;;5076105;28;20208;-52
2021/03/13 10:07:43;;;;;;;2.20;1.00;;;10.70;94.30;;;;;;5075970;28;20175;-56
2021/03/13 10:10:13;;;;;;;1.63;0.80;;;10.90;93.90;;;;;;5076620;28;20198;-54
2021/03/13 10:12:46;;;;;;;1.27;0.83;;;11.00;93.90;;;;;;5076319;28;20198;-54
2021/03/13 10:15:32;;;;;;;1.03;0.83;;;11.00;93.80;;;;;;5076007;28;20650;-56
2021/03/13 10:18:17;;;;;;;3.10;1.10;;;11.20;94.20;;;;;;5076413;28;20499;-59
2021/03/13 10:20:45;;;;;;;2.40;1.50;;;11.40;93.60;;;;;;5076203;28;20177;-56
2021/03/13 10:23:15;;;;;;;1.80;1.23;;;11.50;94.00;;;;;;5075495;28;20654;-56
2021/03/13 10:25:43;;;;;;;1.77;1.00;;;11.70;93.20;;;;;;5076447;28;20233;-54
2021/03/13 10:28:14;;;;;;;1.43;0.97;;;11.70;92.90;;;;;;5075701;28;20565;-56
2021/03/13 10:30:45;;;;;;;1.10;0.90;;;11.80;92.40;;;;;;5075983;28;20189;-53
2021/03/13 10:33:12;;;;;;;1.70;1.07;;;11.60;92.10;;;;;;5087686;28;20197;-57
2021/03/13 10:35:38;;;;;;;3.13;1.20;;;11.50;92.70;;;;;;5095952;28;20220;-54
2021/03/13 10:38:09;;;;;;;1.67;0.90;;;11.40;93.50;;;;;;5096174;28;20178;-53
2021/03/13 10:40:41;;;;;;;1.03;0.90;;;11.40;92.20;;;;;;5096727;28;20174;-52
2021/03/13 10:43:24;;;;;;;2.17;1.10;;;11.20;92.40;;;;;;5096017;28;20178;-54
2021/03/13 10:45:59;;;;;;;1.50;1.10;;;11.20;92.70;;;;;;5096176;28;20525;-54
2021/03/13 10:48:34;;;;;;;0.80;0.80;;;11.20;92.90;;;;;;5095733;28;20185;-56
2021/03/13 10:51:00;;;;;;;1.27;0.87;;;11.20;92.40;;;;;;5095433;28;20208;-56
2021/03/13 10:53:28;;;;;;;1.13;0.93;;;11.20;93.30;;;;;;5094944;28;20202;-53
2021/03/13 10:55:56;;;;;;;1.83;0.73;;;11.20;92.50;;;;;;5095404;28;20347;-56
2021/03/13 10:58:23;;;;;;;1.53;0.80;;;11.00;93.20;;;;;;5095908;28;20170;-54
2021/03/13 11:00:49;;;;;;;0.80;0.80;;;11.10;93.10;;;;;;5096194;28;20173;-57
2021/03/13 11:03:15;;;;;;;1.57;0.73;;;11.10;92.00;;;;;;5095337;28;20194;-58
2021/03/13 11:05:40;;;;;;;1.27;0.80;;;11.20;91.90;;;;;;5095244;28;20200;-59
2021/03/13 11:08:10;;;;;;;0.93;0.83;;;11.20;91.90;;;;;;5091194;28;20200;-58
2021/03/13 11:10:36;;;;;;;1.80;0.80;;;11.30;91.90;;;;;;5086665;28;20200;-55
2021/03/13 11:13:01;;;;;;;1.50;1.00;;;11.30;91.90;;;;;;5080207;28;20277;-53
2021/03/13 11:15:27;;;;;;;2.10;0.80;;;11.40;92.10;;;;;;5084166;28;20219;-54
2021/03/13 11:17:52;;;;;;;1.37;0.90;;;11.40;91.80;;;;;;5115262;28;20173;-55
2021/03/13 11:20:18;;;;;;;1.60;0.87;;;11.40;90.70;;;;;;5109441;28;20180;-55
2021/03/13 11:22:43;;;;;;;1.50;0.93;;;11.50;90.70;;;;;;5092137;28;20178;-57
2021/03/13 11:25:09;;;;;;;1.80;1.03;;;11.70;91.60;;;;;;5093704;28;20216;-58
2021/03/13 11:27:35;;;;;;;0.90;0.90;;;12.00;90.10;;;;;;5089951;28;20627;-55
2021/03/13 11:30:00;;;;;;;0.70;0.60;;;12.30;90.70;;;;;;5074342;28;20685;-53
2021/03/13 11:32:26;;;;;;;1.57;0.83;;;12.40;89.20;;;;;;5093419;28;20193;-54
2021/03/13 11:34:51;;;;;;;1.07;0.63;;;12.50;90.10;;;;;;5090453;28;20586;-55
2021/03/13 11:37:17;;;;;;;1.87;1.00;;;12.70;87.00;;;;;;5074422;28;20222;-59
2021/03/13 11:39:42;;;;;;;0.93;0.60;;;12.60;88.70;;;;;;5076707;28;20546;-57
2021/03/13 11:42:09;;;;;;;1.43;0.80;;;12.50;87.30;;;;;;5091915;28;20274;-59
2021/03/13 11:44:34;;;;;;;1.37;0.80;;;12.50;88.30;;;;;;5098188;28;20674;-51
2021/03/13 11:47:00;;;;;;;0.63;0.60;;;12.60;87.00;;;;;;5102735;28;20181;-54
2021/03/13 11:49:26;;;;;;;0.90;0.70;;;12.70;87.20;;;;;;5093201;28;20181;-54
2021/03/13 11:51:51;;;;;;;1.63;0.50;;;12.50;83.60;;;;;;5097078;28;20209;-59
2021/03/13 11:54:17;;;;;;;0.60;0.50;;;12.30;84.40;;;;;;5080947;28;20186;-57
2021/03/13 11:56:42;;;;;;;1.40;0.90;;;12.20;85.40;;;;;;5074425;28;20206;-51
2021/03/13 11:59:08;;;;;;;1.37;0.83;;;12.10;86.30;;;;;;5073831;28;20577;-54
2021/03/13 12:01:33;;;;;;;0.73;0.73;;;12.00;85.80;;;;;;5074333;28;20295;-53
2021/03/13 12:03:59;;;;;;;0.97;0.63;;;11.90;83.70;;;;;;5074243;28;20190;-52
2021/03/13 12:06:24;;;;;;;0.83;0.83;;;11.90;85.70;;;;;;5074150;28;20212;-54
2021/03/13 12:08:50;;;;;;;1.07;0.80;;;11.90;86.40;;;;;;5073564;28;20186;-53
2021/03/13 12:11:15;;;;;;;3.90;0.70;;;12.00;85.30;;;;;;5073869;28;20197;-51
2021/03/13 12:13:41;;;;;;;0.70;0.70;;;12.00;85.20;;;;;;5073847;28;20562;-55
2021/03/13 12:16:07;;;;;;;1.97;0.80;;;12.10;85.30;;;;;;5073507;28;20244;-53
2021/03/13 12:18:33;;;;;;;0.70;0.70;;;11.90;85.30;;;;;;5072762;28;20185;-52
2021/03/13 12:20:59;;;;;;;0.60;0.60;;;12.00;86.40;;;;;;5073314;28;20178;-58
2021/03/13 12:23:25;;;;;;;1.47;0.90;;;12.10;85.80;;;;;;5074059;28;20197;-58
2021/03/13 12:25:50;;;;;;;2.97;0.80;;;12.30;84.20;;;;;;5073527;28;20214;-54
2021/03/13 12:28:16;;;;;;;1.37;0.90;;;12.50;84.60;;;;;;5073864;28;20174;-52
2021/03/13 12:30:41;;;;;;;0.70;0.70;;;12.70;83.20;;;;;;5073128;28;20233;-52
2021/03/13 12:33:07;;;;;;;2.33;0.63;;;12.90;82.20;;;;;;5073673;28;20179;-52
2021/03/13 12:35:32;;;;;;;0.83;0.80;;;12.90;83.90;;;;;;5073720;28;20675;-55
2021/03/13 12:37:58;;;;;;;2.20;0.73;;;12.80;81.80;;;;;;5073987;28;20202;-58
2021/03/13 12:40:23;;;;;;;0.93;0.80;;;12.80;84.40;;;;;;5073291;28;20175;-59
2021/03/13 12:42:49;;;;;;;2.30;0.83;;;12.90;83.60;;;;;;5073964;28;20174;-53
2021/03/13 12:45:14;;;;;;;1.03;0.60;;;12.90;83.40;;;;;;5073572;28;20196;-53
2021/03/13 12:47:40;;;;;;;0.93;0.73;;;12.90;82.90;;;;;;5073685;28;20175;-56
2021/03/13 12:50:07;;;;;;;1.53;0.70;;;13.10;86.10;;;;;;5073478;28;20671;-55
2021/03/13 12:52:33;;;;;;;2.57;0.80;;;13.40;82.80;;;;;;5073771;28;20176;-57
2021/03/13 12:54:59;;;;;;;1.03;0.67;;;13.60;79.40;;;;;;5073759;28;20212;-59
2021/03/13 12:57:24;;;;;;;0.93;0.67;;;13.70;81.10;;;;;;5073614;28;20200;-60
2021/03/13 12:59:50;;;;;;;1.10;0.60;;;13.80;79.70;;;;;;5074216;28;20171;-51
2021/03/13 13:02:15;;;;;;;0.50;0.50;;;13.70;79.60;;;;;;5072896;28;20196;-54